sensor_id;sensor_type;location;lat;lon;timestamp;P1;durP1;ratioP1;P2;durP2;ratioP2
10465;SDS011;5280;42.600;23.556;2023-02-28T00:00:08;22.93;;;15.97;;
10465;SDS011;5280;42.600;23.556;2023-02-28T00:02:37;21.17;;;15.13;;
10465;SDS011;5280;42.600;23.556;2023-02-28T00:05:05;20.13;;;13.87;;
10465;SDS011;5280;42.600;23.556;2023-02-28T00:07:33;23.13;;;14.83;;
10465;SDS011;5280;42.600;23.556;2023-02-28T00:10:02;19.47;;;14.17;;
10465;SDS011;5280;42.600;23.556;2023-02-28T00:12:31;18.67;;;14.13;;
10465;SDS011;5280;42.600;23.556;2023-02-28T00:14:58;19.73;;;14.47;;
10465;SDS011;5280;42.600;23.556;2023-02-28T00:17:26;15.67;;;12.97;;
10465;SDS011;5280;42.600;23.556;2023-02-28T00:19:52;18.83;;;13.70;;
10465;SDS011;5280;42.600;23.556;2023-02-28T00:22:20;13.77;;;12.07;;
10465;SDS011;5280;42.600;23.556;2023-02-28T00:24:47;16.23;;;11.87;;
10465;SDS011;5280;42.600;23.556;2023-02-28T00:27:16;10.33;;;9.17;;
10465;SDS011;5280;42.600;23.556;2023-02-28T00:29:42;9.33;;;8.00;;
10465;SDS011;5280;42.600;23.556;2023-02-28T00:32:09;9.57;;;6.10;;
10465;SDS011;5280;42.600;23.556;2023-02-28T00:34:36;8.83;;;6.67;;
10465;SDS011;5280;42.600;23.556;2023-02-28T00:37:04;12.10;;;9.13;;
10465;SDS011;5280;42.600;23.556;2023-02-28T00:39:33;10.83;;;8.33;;
10465;SDS011;5280;42.600;23.556;2023-02-28T00:42:00;9.87;;;6.57;;
10465;SDS011;5280;42.600;23.556;2023-02-28T00:44:29;7.20;;;5.70;;
10465;SDS011;5280;42.600;23.556;2023-02-28T00:46:56;8.67;;;6.60;;
10465;SDS011;5280;42.600;23.556;2023-02-28T00:49:24;9.83;;;6.40;;
10465;SDS011;5280;42.600;23.556;2023-02-28T00:51:51;9.63;;;6.17;;
10465;SDS011;5280;42.600;23.556;2023-02-28T00:54:20;6.53;;;5.80;;
10465;SDS011;5280;42.600;23.556;2023-02-28T00:56:47;5.83;;;5.23;;
10465;SDS011;5280;42.600;23.556;2023-02-28T00:59:15;7.93;;;5.53;;
10465;SDS011;5280;42.600;23.556;2023-02-28T01:01:45;7.30;;;5.27;;
10465;SDS011;5280;42.600;23.556;2023-02-28T01:04:13;8.63;;;5.30;;
10465;SDS011;5280;42.600;23.556;2023-02-28T01:06:40;7.47;;;5.53;;
10465;SDS011;5280;42.600;23.556;2023-02-28T01:09:08;6.97;;;5.30;;
10465;SDS011;5280;42.600;23.556;2023-02-28T01:11:35;6.67;;;5.23;;
10465;SDS011;5280;42.600;23.556;2023-02-28T01:14:05;7.03;;;5.37;;
10465;SDS011;5280;42.600;23.556;2023-02-28T01:16:32;7.13;;;4.53;;
10465;SDS011;5280;42.600;23.556;2023-02-28T01:19:00;8.90;;;4.70;;
10465;SDS011;5280;42.600;23.556;2023-02-28T01:21:27;6.47;;;4.17;;
10465;SDS011;5280;42.600;23.556;2023-02-28T01:23:56;8.93;;;4.57;;
10465;SDS011;5280;42.600;23.556;2023-02-28T01:26:24;8.43;;;5.13;;
10465;SDS011;5280;42.600;23.556;2023-02-28T01:28:53;7.30;;;4.60;;
10465;SDS011;5280;42.600;23.556;2023-02-28T01:31:21;7.00;;;4.40;;
10465;SDS011;5280;42.600;23.556;2023-02-28T01:33:49;4.20;;;3.80;;
10465;SDS011;5280;42.600;23.556;2023-02-28T01:36:18;4.20;;;3.80;;
10465;SDS011;5280;42.600;23.556;2023-02-28T01:38:48;4.90;;;3.20;;
10465;SDS011;5280;42.600;23.556;2023-02-28T01:41:16;4.07;;;3.27;;
10465;SDS011;5280;42.600;23.556;2023-02-28T01:43:53;3.77;;;3.40;;
10465;SDS011;5280;42.600;23.556;2023-02-28T01:46:21;5.20;;;3.93;;
10465;SDS011;5280;42.600;23.556;2023-02-28T01:48:50;8.23;;;4.47;;
10465;SDS011;5280;42.600;23.556;2023-02-28T01:51:24;9.47;;;4.10;;
10465;SDS011;5280;42.600;23.556;2023-02-28T01:53:57;4.47;;;4.00;;
10465;SDS011;5280;42.600;23.556;2023-02-28T01:56:30;4.63;;;4.03;;
10465;SDS011;5280;42.600;23.556;2023-02-28T01:59:00;6.37;;;4.13;;
10465;SDS011;5280;42.600;23.556;2023-02-28T02:01:28;6.97;;;3.80;;
10465;SDS011;5280;42.600;23.556;2023-02-28T02:03:57;4.90;;;3.73;;
10465;SDS011;5280;42.600;23.556;2023-02-28T02:06:28;7.20;;;4.03;;
10465;SDS011;5280;42.600;23.556;2023-02-28T02:08:57;231.30;;;17.27;;
10465;SDS011;5280;42.600;23.556;2023-02-28T02:11:24;124.03;;;14.23;;
10465;SDS011;5280;42.600;23.556;2023-02-28T02:14:04;18.13;;;10.47;;
10465;SDS011;5280;42.600;23.556;2023-02-28T02:16:53;175.77;;;17.77;;
10465;SDS011;5280;42.600;23.556;2023-02-28T02:19:46;12.50;;;7.83;;
10465;SDS011;5280;42.600;23.556;2023-02-28T02:25:48;8.00;;;5.67;;
10465;SDS011;5280;42.600;23.556;2023-02-28T02:31:37;101.00;;;10.70;;
10465;SDS011;5280;42.600;23.556;2023-02-28T02:34:30;46.33;;;10.87;;
10465;SDS011;5280;42.600;23.556;2023-02-28T02:37:10;10.80;;;8.33;;
10465;SDS011;5280;42.600;23.556;2023-02-28T02:39:47;30.40;;;8.63;;
10465;SDS011;5280;42.600;23.556;2023-02-28T02:42:21;20.07;;;8.20;;
10465;SDS011;5280;42.600;23.556;2023-02-28T02:44:55;8.47;;;6.20;;
10465;SDS011;5280;42.600;23.556;2023-02-28T02:47:29;5.73;;;5.13;;
10465;SDS011;5280;42.600;23.556;2023-02-28T02:50:02;5.70;;;4.50;;
10465;SDS011;5280;42.600;23.556;2023-02-28T02:52:34;7.63;;;4.20;;
10465;SDS011;5280;42.600;23.556;2023-02-28T02:55:05;6.33;;;3.63;;
10465;SDS011;5280;42.600;23.556;2023-02-28T02:57:36;4.20;;;3.63;;
10465;SDS011;5280;42.600;23.556;2023-02-28T03:00:11;4.07;;;3.73;;
10465;SDS011;5280;42.600;23.556;2023-02-28T03:02:40;3.33;;;2.77;;
10465;SDS011;5280;42.600;23.556;2023-02-28T03:05:12;3.73;;;2.43;;
10465;SDS011;5280;42.600;23.556;2023-02-28T03:07:44;2.37;;;1.93;;
10465;SDS011;5280;42.600;23.556;2023-02-28T03:13:03;4.23;;;2.37;;
10465;SDS011;5280;42.600;23.556;2023-02-28T03:15:52;2.60;;;2.10;;
10465;SDS011;5280;42.600;23.556;2023-02-28T03:18:30;5.63;;;1.80;;
10465;SDS011;5280;42.600;23.556;2023-02-28T03:21:14;7.07;;;2.20;;
10465;SDS011;5280;42.600;23.556;2023-02-28T03:23:52;3.17;;;2.00;;
10465;SDS011;5280;42.600;23.556;2023-02-28T03:26:26;3.93;;;2.50;;
10465;SDS011;5280;42.600;23.556;2023-02-28T03:28:55;5.97;;;3.17;;
10465;SDS011;5280;42.600;23.556;2023-02-28T03:31:30;4.37;;;2.37;;
10465;SDS011;5280;42.600;23.556;2023-02-28T03:34:04;3.87;;;2.20;;
10465;SDS011;5280;42.600;23.556;2023-02-28T03:36:38;5.43;;;2.50;;
10465;SDS011;5280;42.600;23.556;2023-02-28T03:39:11;5.50;;;2.70;;
10465;SDS011;5280;42.600;23.556;2023-02-28T03:41:42;4.60;;;2.90;;
10465;SDS011;5280;42.600;23.556;2023-02-28T03:44:16;2.93;;;2.67;;
10465;SDS011;5280;42.600;23.556;2023-02-28T03:46:48;2.77;;;2.43;;
10465;SDS011;5280;42.600;23.556;2023-02-28T03:49:21;5.13;;;2.63;;
10465;SDS011;5280;42.600;23.556;2023-02-28T03:51:52;5.97;;;2.87;;
10465;SDS011;5280;42.600;23.556;2023-02-28T03:54:22;4.00;;;3.00;;
10465;SDS011;5280;42.600;23.556;2023-02-28T03:56:56;4.07;;;3.03;;
10465;SDS011;5280;42.600;23.556;2023-02-28T03:59:30;4.47;;;3.17;;
10465;SDS011;5280;42.600;23.556;2023-02-28T04:02:03;4.97;;;3.43;;
10465;SDS011;5280;42.600;23.556;2023-02-28T04:04:31;5.70;;;3.57;;
10465;SDS011;5280;42.600;23.556;2023-02-28T04:07:03;5.57;;;3.70;;
10465;SDS011;5280;42.600;23.556;2023-02-28T04:09:33;4.43;;;3.70;;
10465;SDS011;5280;42.600;23.556;2023-02-28T04:12:03;6.23;;;4.00;;
10465;SDS011;5280;42.600;23.556;2023-02-28T04:14:30;5.40;;;3.97;;
10465;SDS011;5280;42.600;23.556;2023-02-28T04:16:57;5.67;;;3.60;;
10465;SDS011;5280;42.600;23.556;2023-02-28T04:19:24;6.43;;;4.57;;
10465;SDS011;5280;42.600;23.556;2023-02-28T04:21:51;7.43;;;4.47;;
10465;SDS011;5280;42.600;23.556;2023-02-28T04:24:21;6.63;;;4.57;;
10465;SDS011;5280;42.600;23.556;2023-02-28T04:26:50;7.17;;;5.07;;
10465;SDS011;5280;42.600;23.556;2023-02-28T04:29:19;5.10;;;4.53;;
10465;SDS011;5280;42.600;23.556;2023-02-28T04:31:47;6.80;;;4.73;;
10465;SDS011;5280;42.600;23.556;2023-02-28T04:34:14;6.53;;;4.87;;
10465;SDS011;5280;42.600;23.556;2023-02-28T04:36:41;6.80;;;5.27;;
10465;SDS011;5280;42.600;23.556;2023-02-28T04:39:08;6.27;;;4.93;;
10465;SDS011;5280;42.600;23.556;2023-02-28T04:41:43;8.03;;;4.90;;
10465;SDS011;5280;42.600;23.556;2023-02-28T04:44:11;5.67;;;4.70;;
10465;SDS011;5280;42.600;23.556;2023-02-28T04:46:40;8.27;;;5.30;;
10465;SDS011;5280;42.600;23.556;2023-02-28T04:49:08;12.07;;;5.40;;
10465;SDS011;5280;42.600;23.556;2023-02-28T04:51:37;7.87;;;6.00;;
10465;SDS011;5280;42.600;23.556;2023-02-28T04:54:03;12.77;;;6.97;;
10465;SDS011;5280;42.600;23.556;2023-02-28T04:56:31;10.67;;;7.27;;
10465;SDS011;5280;42.600;23.556;2023-02-28T04:58:59;11.40;;;7.60;;
10465;SDS011;5280;42.600;23.556;2023-02-28T05:01:27;14.00;;;8.93;;
10465;SDS011;5280;42.600;23.556;2023-02-28T05:03:56;11.40;;;9.23;;
10465;SDS011;5280;42.600;23.556;2023-02-28T05:06:28;15.33;;;9.13;;
10465;SDS011;5280;42.600;23.556;2023-02-28T05:08:57;15.67;;;10.47;;
10465;SDS011;5280;42.600;23.556;2023-02-28T05:11:26;14.50;;;10.13;;
10465;SDS011;5280;42.600;23.556;2023-02-28T05:14:00;13.93;;;11.30;;
10465;SDS011;5280;42.600;23.556;2023-02-28T05:16:27;16.33;;;11.70;;
10465;SDS011;5280;42.600;23.556;2023-02-28T05:18:54;25.80;;;12.77;;
10465;SDS011;5280;42.600;23.556;2023-02-28T05:21:26;18.93;;;10.97;;
10465;SDS011;5280;42.600;23.556;2023-02-28T05:23:54;16.50;;;10.87;;
10465;SDS011;5280;42.600;23.556;2023-02-28T05:26:22;16.30;;;10.60;;
10465;SDS011;5280;42.600;23.556;2023-02-28T05:28:50;15.70;;;10.47;;
10465;SDS011;5280;42.600;23.556;2023-02-28T05:31:19;18.03;;;11.17;;
10465;SDS011;5280;42.600;23.556;2023-02-28T05:33:46;16.73;;;12.50;;
10465;SDS011;5280;42.600;23.556;2023-02-28T05:36:13;18.47;;;12.70;;
10465;SDS011;5280;42.600;23.556;2023-02-28T05:38:40;17.67;;;12.20;;
10465;SDS011;5280;42.600;23.556;2023-02-28T05:41:07;14.67;;;11.43;;
10465;SDS011;5280;42.600;23.556;2023-02-28T05:43:36;17.37;;;11.97;;
10465;SDS011;5280;42.600;23.556;2023-02-28T05:46:04;15.57;;;11.63;;
10465;SDS011;5280;42.600;23.556;2023-02-28T05:48:33;15.20;;;12.13;;
10465;SDS011;5280;42.600;23.556;2023-02-28T05:51:01;14.73;;;11.33;;
10465;SDS011;5280;42.600;23.556;2023-02-28T05:53:29;18.40;;;11.90;;
10465;SDS011;5280;42.600;23.556;2023-02-28T05:55:56;22.93;;;13.60;;
10465;SDS011;5280;42.600;23.556;2023-02-28T05:58:24;18.40;;;12.03;;
10465;SDS011;5280;42.600;23.556;2023-02-28T06:00:55;20.37;;;13.50;;
10465;SDS011;5280;42.600;23.556;2023-02-28T06:03:23;18.50;;;12.17;;
10465;SDS011;5280;42.600;23.556;2023-02-28T06:05:54;20.60;;;14.53;;
10465;SDS011;5280;42.600;23.556;2023-02-28T06:08:21;18.00;;;12.13;;
10465;SDS011;5280;42.600;23.556;2023-02-28T06:10:48;19.70;;;13.20;;
10465;SDS011;5280;42.600;23.556;2023-02-28T06:13:15;19.37;;;12.03;;
10465;SDS011;5280;42.600;23.556;2023-02-28T06:15:42;17.63;;;12.33;;
10465;SDS011;5280;42.600;23.556;2023-02-28T06:18:08;19.00;;;12.13;;
10465;SDS011;5280;42.600;23.556;2023-02-28T06:20:35;19.97;;;13.10;;
10465;SDS011;5280;42.600;23.556;2023-02-28T06:23:07;23.37;;;14.70;;
10465;SDS011;5280;42.600;23.556;2023-02-28T06:25:34;23.03;;;13.87;;
10465;SDS011;5280;42.600;23.556;2023-02-28T06:28:01;23.80;;;14.23;;
10465;SDS011;5280;42.600;23.556;2023-02-28T06:30:28;53.60;;;37.10;;
10465;SDS011;5280;42.600;23.556;2023-02-28T06:32:56;38.50;;;29.43;;
10465;SDS011;5280;42.600;23.556;2023-02-28T06:35:23;41.70;;;22.83;;
10465;SDS011;5280;42.600;23.556;2023-02-28T06:37:50;32.63;;;20.17;;
10465;SDS011;5280;42.600;23.556;2023-02-28T06:40:18;34.73;;;20.07;;
10465;SDS011;5280;42.600;23.556;2023-02-28T06:42:45;33.63;;;19.27;;
10465;SDS011;5280;42.600;23.556;2023-02-28T06:45:12;33.63;;;20.13;;
10465;SDS011;5280;42.600;23.556;2023-02-28T06:47:41;29.33;;;19.20;;
10465;SDS011;5280;42.600;23.556;2023-02-28T06:50:09;31.93;;;18.87;;
10465;SDS011;5280;42.600;23.556;2023-02-28T06:52:40;34.53;;;19.90;;
10465;SDS011;5280;42.600;23.556;2023-02-28T06:55:08;34.00;;;19.50;;
10465;SDS011;5280;42.600;23.556;2023-02-28T06:57:37;33.27;;;19.93;;
10465;SDS011;5280;42.600;23.556;2023-02-28T07:00:05;33.07;;;19.63;;
10465;SDS011;5280;42.600;23.556;2023-02-28T07:02:33;30.87;;;19.87;;
10465;SDS011;5280;42.600;23.556;2023-02-28T07:05:00;32.90;;;19.43;;
10465;SDS011;5280;42.600;23.556;2023-02-28T07:07:28;31.77;;;18.93;;
10465;SDS011;5280;42.600;23.556;2023-02-28T07:09:55;28.80;;;17.83;;
10465;SDS011;5280;42.600;23.556;2023-02-28T07:12:22;32.80;;;17.67;;
10465;SDS011;5280;42.600;23.556;2023-02-28T07:14:50;29.97;;;18.10;;
10465;SDS011;5280;42.600;23.556;2023-02-28T07:17:17;29.23;;;18.40;;
10465;SDS011;5280;42.600;23.556;2023-02-28T07:19:44;32.57;;;16.80;;
10465;SDS011;5280;42.600;23.556;2023-02-28T07:22:11;30.03;;;18.37;;
10465;SDS011;5280;42.600;23.556;2023-02-28T07:24:38;30.90;;;18.33;;
10465;SDS011;5280;42.600;23.556;2023-02-28T07:27:05;31.20;;;19.50;;
10465;SDS011;5280;42.600;23.556;2023-02-28T07:29:31;27.93;;;16.23;;
10465;SDS011;5280;42.600;23.556;2023-02-28T07:32:00;31.93;;;17.63;;
10465;SDS011;5280;42.600;23.556;2023-02-28T07:34:27;26.13;;;17.37;;
10465;SDS011;5280;42.600;23.556;2023-02-28T07:36:54;29.43;;;18.57;;
10465;SDS011;5280;42.600;23.556;2023-02-28T07:39:21;28.60;;;17.27;;
10465;SDS011;5280;42.600;23.556;2023-02-28T07:41:48;32.30;;;19.20;;
10465;SDS011;5280;42.600;23.556;2023-02-28T07:44:15;35.10;;;19.33;;
10465;SDS011;5280;42.600;23.556;2023-02-28T07:46:46;26.97;;;16.63;;
10465;SDS011;5280;42.600;23.556;2023-02-28T07:49:14;28.43;;;17.30;;
10465;SDS011;5280;42.600;23.556;2023-02-28T07:51:41;26.50;;;16.97;;
10465;SDS011;5280;42.600;23.556;2023-02-28T07:54:08;29.50;;;17.80;;
10465;SDS011;5280;42.600;23.556;2023-02-28T07:56:35;25.70;;;16.97;;
10465;SDS011;5280;42.600;23.556;2023-02-28T07:59:02;25.20;;;18.13;;
10465;SDS011;5280;42.600;23.556;2023-02-28T08:01:29;27.20;;;18.23;;
10465;SDS011;5280;42.600;23.556;2023-02-28T08:03:56;32.73;;;19.00;;
10465;SDS011;5280;42.600;23.556;2023-02-28T08:06:25;26.07;;;16.90;;
10465;SDS011;5280;42.600;23.556;2023-02-28T08:08:53;27.93;;;18.20;;
10465;SDS011;5280;42.600;23.556;2023-02-28T08:11:21;29.97;;;16.73;;
10465;SDS011;5280;42.600;23.556;2023-02-28T08:13:47;26.37;;;17.67;;
10465;SDS011;5280;42.600;23.556;2023-02-28T08:16:14;26.27;;;16.47;;
10465;SDS011;5280;42.600;23.556;2023-02-28T08:18:47;24.50;;;17.30;;
10465;SDS011;5280;42.600;23.556;2023-02-28T08:21:14;25.40;;;17.33;;
10465;SDS011;5280;42.600;23.556;2023-02-28T08:23:42;25.00;;;17.60;;
10465;SDS011;5280;42.600;23.556;2023-02-28T08:26:09;26.60;;;16.63;;
10465;SDS011;5280;42.600;23.556;2023-02-28T08:28:36;23.13;;;15.13;;
10465;SDS011;5280;42.600;23.556;2023-02-28T08:31:06;27.63;;;16.43;;
10465;SDS011;5280;42.600;23.556;2023-02-28T08:33:37;22.40;;;15.53;;
10465;SDS011;5280;42.600;23.556;2023-02-28T08:36:05;18.47;;;13.57;;
10465;SDS011;5280;42.600;23.556;2023-02-28T08:38:32;17.10;;;13.60;;
10465;SDS011;5280;42.600;23.556;2023-02-28T08:41:01;19.70;;;13.60;;
10465;SDS011;5280;42.600;23.556;2023-02-28T08:43:31;20.83;;;13.57;;
10465;SDS011;5280;42.600;23.556;2023-02-28T08:45:58;20.27;;;12.37;;
10465;SDS011;5280;42.600;23.556;2023-02-28T08:48:25;20.37;;;13.23;;
10465;SDS011;5280;42.600;23.556;2023-02-28T08:50:56;21.60;;;13.93;;
10465;SDS011;5280;42.600;23.556;2023-02-28T08:53:24;18.67;;;13.13;;
10465;SDS011;5280;42.600;23.556;2023-02-28T08:55:57;22.20;;;13.47;;
10465;SDS011;5280;42.600;23.556;2023-02-28T08:58:26;24.83;;;14.50;;
10465;SDS011;5280;42.600;23.556;2023-02-28T09:00:54;23.27;;;13.60;;
10465;SDS011;5280;42.600;23.556;2023-02-28T09:03:22;21.30;;;14.13;;
10465;SDS011;5280;42.600;23.556;2023-02-28T09:05:53;19.77;;;14.10;;
10465;SDS011;5280;42.600;23.556;2023-02-28T09:08:22;22.40;;;14.23;;
10465;SDS011;5280;42.600;23.556;2023-02-28T09:10:49;20.53;;;14.70;;
10465;SDS011;5280;42.600;23.556;2023-02-28T09:13:17;23.97;;;16.60;;
10465;SDS011;5280;42.600;23.556;2023-02-28T09:15:45;26.00;;;16.37;;
10465;SDS011;5280;42.600;23.556;2023-02-28T09:18:12;22.13;;;14.77;;
10465;SDS011;5280;42.600;23.556;2023-02-28T09:20:39;29.03;;;15.23;;
10465;SDS011;5280;42.600;23.556;2023-02-28T09:23:07;22.00;;;15.13;;
10465;SDS011;5280;42.600;23.556;2023-02-28T09:25:35;23.20;;;14.37;;
10465;SDS011;5280;42.600;23.556;2023-02-28T09:28:05;24.83;;;15.50;;
10465;SDS011;5280;42.600;23.556;2023-02-28T09:30:32;22.40;;;15.20;;
10465;SDS011;5280;42.600;23.556;2023-02-28T09:33:01;23.80;;;15.27;;
10465;SDS011;5280;42.600;23.556;2023-02-28T09:35:28;24.63;;;15.53;;
10465;SDS011;5280;42.600;23.556;2023-02-28T09:37:56;23.87;;;15.47;;
10465;SDS011;5280;42.600;23.556;2023-02-28T09:40:24;17.77;;;13.63;;
10465;SDS011;5280;42.600;23.556;2023-02-28T09:42:53;19.80;;;13.57;;
10465;SDS011;5280;42.600;23.556;2023-02-28T09:45:23;21.70;;;13.30;;
10465;SDS011;5280;42.600;23.556;2023-02-28T09:47:54;19.43;;;13.27;;
10465;SDS011;5280;42.600;23.556;2023-02-28T09:50:30;22.07;;;14.03;;
10465;SDS011;5280;42.600;23.556;2023-02-28T09:52:59;22.23;;;14.50;;
10465;SDS011;5280;42.600;23.556;2023-02-28T09:55:30;20.00;;;12.90;;
10465;SDS011;5280;42.600;23.556;2023-02-28T09:58:01;18.57;;;13.03;;
10465;SDS011;5280;42.600;23.556;2023-02-28T10:00:29;22.77;;;14.03;;
10465;SDS011;5280;42.600;23.556;2023-02-28T10:03:04;20.20;;;11.33;;
10465;SDS011;5280;42.600;23.556;2023-02-28T10:05:43;18.87;;;12.80;;
10465;SDS011;5280;42.600;23.556;2023-02-28T10:08:19;22.33;;;14.10;;
10465;SDS011;5280;42.600;23.556;2023-02-28T10:10:51;19.67;;;13.33;;
10465;SDS011;5280;42.600;23.556;2023-02-28T10:13:24;16.77;;;13.37;;
10465;SDS011;5280;42.600;23.556;2023-02-28T10:15:58;19.73;;;13.03;;
10465;SDS011;5280;42.600;23.556;2023-02-28T10:18:30;19.83;;;12.73;;
10465;SDS011;5280;42.600;23.556;2023-02-28T10:21:08;19.40;;;12.57;;
10465;SDS011;5280;42.600;23.556;2023-02-28T10:23:43;16.27;;;12.77;;
10465;SDS011;5280;42.600;23.556;2023-02-28T10:26:13;22.27;;;13.40;;
10465;SDS011;5280;42.600;23.556;2023-02-28T10:28:42;17.63;;;12.33;;
10465;SDS011;5280;42.600;23.556;2023-02-28T10:31:11;24.13;;;14.20;;
10465;SDS011;5280;42.600;23.556;2023-02-28T10:33:41;20.90;;;12.70;;
10465;SDS011;5280;42.600;23.556;2023-02-28T10:36:10;23.73;;;13.73;;
10465;SDS011;5280;42.600;23.556;2023-02-28T10:38:41;20.77;;;12.00;;
10465;SDS011;5280;42.600;23.556;2023-02-28T10:41:11;19.17;;;12.27;;
10465;SDS011;5280;42.600;23.556;2023-02-28T10:43:39;18.93;;;12.90;;
10465;SDS011;5280;42.600;23.556;2023-02-28T10:46:14;20.93;;;14.30;;
10465;SDS011;5280;42.600;23.556;2023-02-28T10:48:59;19.43;;;12.77;;
10465;SDS011;5280;42.600;23.556;2023-02-28T10:51:35;18.70;;;13.30;;
10465;SDS011;5280;42.600;23.556;2023-02-28T10:54:04;18.80;;;12.47;;
10465;SDS011;5280;42.600;23.556;2023-02-28T10:56:32;15.57;;;11.90;;
10465;SDS011;5280;42.600;23.556;2023-02-28T10:59:00;18.87;;;13.10;;
10465;SDS011;5280;42.600;23.556;2023-02-28T11:01:35;18.80;;;12.73;;
10465;SDS011;5280;42.600;23.556;2023-02-28T11:04:03;18.90;;;13.07;;
10465;SDS011;5280;42.600;23.556;2023-02-28T11:06:45;18.07;;;13.23;;
10465;SDS011;5280;42.600;23.556;2023-02-28T11:09:20;19.07;;;12.93;;
10465;SDS011;5280;42.600;23.556;2023-02-28T11:11:51;20.37;;;13.23;;
10465;SDS011;5280;42.600;23.556;2023-02-28T11:14:20;17.83;;;11.93;;
10465;SDS011;5280;42.600;23.556;2023-02-28T11:16:48;17.37;;;12.57;;
10465;SDS011;5280;42.600;23.556;2023-02-28T11:19:18;16.33;;;11.27;;
10465;SDS011;5280;42.600;23.556;2023-02-28T11:21:52;17.97;;;12.30;;
10465;SDS011;5280;42.600;23.556;2023-02-28T11:24:23;17.07;;;11.87;;
10465;SDS011;5280;42.600;23.556;2023-02-28T11:26:53;19.40;;;12.27;;
10465;SDS011;5280;42.600;23.556;2023-02-28T11:29:21;21.03;;;12.23;;
10465;SDS011;5280;42.600;23.556;2023-02-28T11:32:05;17.73;;;11.93;;
10465;SDS011;5280;42.600;23.556;2023-02-28T11:34:38;18.70;;;12.67;;
10465;SDS011;5280;42.600;23.556;2023-02-28T11:37:11;16.47;;;12.70;;
10465;SDS011;5280;42.600;23.556;2023-02-28T11:39:40;19.80;;;12.07;;
10465;SDS011;5280;42.600;23.556;2023-02-28T11:42:13;18.07;;;12.87;;
10465;SDS011;5280;42.600;23.556;2023-02-28T11:45:07;16.93;;;11.47;;
10465;SDS011;5280;42.600;23.556;2023-02-28T11:47:44;16.90;;;11.80;;
10465;SDS011;5280;42.600;23.556;2023-02-28T11:50:22;17.93;;;11.60;;
10465;SDS011;5280;42.600;23.556;2023-02-28T11:53:05;18.73;;;12.03;;
10465;SDS011;5280;42.600;23.556;2023-02-28T11:55:44;17.10;;;11.93;;
10465;SDS011;5280;42.600;23.556;2023-02-28T11:58:22;17.90;;;12.53;;
10465;SDS011;5280;42.600;23.556;2023-02-28T12:01:09;16.60;;;12.30;;
10465;SDS011;5280;42.600;23.556;2023-02-28T12:03:49;18.10;;;12.10;;
10465;SDS011;5280;42.600;23.556;2023-02-28T12:06:31;17.57;;;12.27;;
10465;SDS011;5280;42.600;23.556;2023-02-28T12:09:18;21.20;;;12.17;;
10465;SDS011;5280;42.600;23.556;2023-02-28T12:11:57;17.87;;;13.43;;
10465;SDS011;5280;42.600;23.556;2023-02-28T12:14:44;15.30;;;12.37;;
10465;SDS011;5280;42.600;23.556;2023-02-28T12:17:29;18.20;;;13.03;;
10465;SDS011;5280;42.600;23.556;2023-02-28T12:20:12;19.30;;;12.53;;
10465;SDS011;5280;42.600;23.556;2023-02-28T12:22:46;16.27;;;11.63;;
10465;SDS011;5280;42.600;23.556;2023-02-28T12:25:24;17.90;;;11.77;;
10465;SDS011;5280;42.600;23.556;2023-02-28T12:28:09;17.77;;;12.43;;
10465;SDS011;5280;42.600;23.556;2023-02-28T12:30:39;14.77;;;11.60;;
10465;SDS011;5280;42.600;23.556;2023-02-28T12:33:14;14.67;;;12.03;;
10465;SDS011;5280;42.600;23.556;2023-02-28T12:35:44;16.00;;;11.47;;
10465;SDS011;5280;42.600;23.556;2023-02-28T12:38:16;15.33;;;12.17;;
10465;SDS011;5280;42.600;23.556;2023-02-28T12:40:50;19.30;;;12.07;;
10465;SDS011;5280;42.600;23.556;2023-02-28T12:43:21;16.80;;;11.70;;
10465;SDS011;5280;42.600;23.556;2023-02-28T12:45:53;16.97;;;12.67;;
10465;SDS011;5280;42.600;23.556;2023-02-28T12:48:26;16.37;;;12.27;;
10465;SDS011;5280;42.600;23.556;2023-02-28T12:50:57;16.17;;;11.53;;
10465;SDS011;5280;42.600;23.556;2023-02-28T12:53:27;15.27;;;11.40;;
10465;SDS011;5280;42.600;23.556;2023-02-28T12:56:05;18.00;;;11.90;;
10465;SDS011;5280;42.600;23.556;2023-02-28T12:58:40;16.90;;;11.90;;
10465;SDS011;5280;42.600;23.556;2023-02-28T13:01:27;15.40;;;12.20;;
10465;SDS011;5280;42.600;23.556;2023-02-28T13:04:16;16.40;;;10.27;;
10465;SDS011;5280;42.600;23.556;2023-02-28T13:07:06;15.90;;;11.00;;
10465;SDS011;5280;42.600;23.556;2023-02-28T13:09:51;15.20;;;10.77;;
10465;SDS011;5280;42.600;23.556;2023-02-28T13:12:21;18.97;;;11.70;;
10465;SDS011;5280;42.600;23.556;2023-02-28T13:14:48;17.30;;;10.60;;
10465;SDS011;5280;42.600;23.556;2023-02-28T13:17:17;16.60;;;11.83;;
10465;SDS011;5280;42.600;23.556;2023-02-28T13:19:55;18.00;;;10.90;;
10465;SDS011;5280;42.600;23.556;2023-02-28T13:22:40;15.53;;;10.30;;
10465;SDS011;5280;42.600;23.556;2023-02-28T13:31:32;10.90;;;9.00;;
10465;SDS011;5280;42.600;23.556;2023-02-28T13:34:19;13.73;;;8.97;;
10465;SDS011;5280;42.600;23.556;2023-02-28T13:36:46;14.47;;;9.27;;
10465;SDS011;5280;42.600;23.556;2023-02-28T13:45:21;11.50;;;8.67;;
10465;SDS011;5280;42.600;23.556;2023-02-28T13:48:04;14.83;;;8.63;;
10465;SDS011;5280;42.600;23.556;2023-02-28T13:50:42;11.10;;;7.90;;
10465;SDS011;5280;42.600;23.556;2023-02-28T13:53:26;10.27;;;7.40;;
10465;SDS011;5280;42.600;23.556;2023-02-28T13:56:07;9.97;;;7.43;;
10465;SDS011;5280;42.600;23.556;2023-02-28T13:58:48;9.23;;;6.47;;
10465;SDS011;5280;42.600;23.556;2023-02-28T14:01:27;11.10;;;7.33;;
10465;SDS011;5280;42.600;23.556;2023-02-28T14:04:12;8.17;;;6.83;;
10465;SDS011;5280;42.600;23.556;2023-02-28T14:06:55;9.03;;;6.47;;
10465;SDS011;5280;42.600;23.556;2023-02-28T14:09:24;13.30;;;6.70;;
10465;SDS011;5280;42.600;23.556;2023-02-28T14:11:55;11.87;;;6.97;;
10465;SDS011;5280;42.600;23.556;2023-02-28T14:17:21;7.33;;;6.27;;
10465;SDS011;5280;42.600;23.556;2023-02-28T14:19:50;18.33;;;7.10;;
10465;SDS011;5280;42.600;23.556;2023-02-28T14:22:21;7.83;;;5.90;;
10465;SDS011;5280;42.600;23.556;2023-02-28T14:25:09;12.97;;;6.03;;
10465;SDS011;5280;42.600;23.556;2023-02-28T14:27:45;9.53;;;5.73;;
10465;SDS011;5280;42.600;23.556;2023-02-28T14:30:26;10.07;;;5.33;;
10465;SDS011;5280;42.600;23.556;2023-02-28T14:36:14;8.70;;;4.63;;
10465;SDS011;5280;42.600;23.556;2023-02-28T14:38:47;6.97;;;4.73;;
10465;SDS011;5280;42.600;23.556;2023-02-28T14:41:20;5.07;;;4.27;;
10465;SDS011;5280;42.600;23.556;2023-02-28T14:43:50;6.97;;;4.40;;
10465;SDS011;5280;42.600;23.556;2023-02-28T14:46:19;8.57;;;4.67;;
10465;SDS011;5280;42.600;23.556;2023-02-28T14:48:47;5.47;;;4.83;;
10465;SDS011;5280;42.600;23.556;2023-02-28T14:51:20;5.03;;;4.20;;
10465;SDS011;5280;42.600;23.556;2023-02-28T14:53:49;6.03;;;5.30;;
10465;SDS011;5280;42.600;23.556;2023-02-28T14:56:22;7.13;;;4.43;;
10465;SDS011;5280;42.600;23.556;2023-02-28T14:58:51;5.17;;;4.27;;
10465;SDS011;5280;42.600;23.556;2023-02-28T15:01:19;7.40;;;4.63;;
10465;SDS011;5280;42.600;23.556;2023-02-28T15:03:47;6.47;;;4.90;;
10465;SDS011;5280;42.600;23.556;2023-02-28T15:06:24;5.60;;;4.60;;
10465;SDS011;5280;42.600;23.556;2023-02-28T15:09:06;5.13;;;4.53;;
10465;SDS011;5280;42.600;23.556;2023-02-28T15:11:34;5.23;;;4.03;;
10465;SDS011;5280;42.600;23.556;2023-02-28T15:14:02;7.67;;;4.97;;
10465;SDS011;5280;42.600;23.556;2023-02-28T15:16:43;4.17;;;3.37;;
10465;SDS011;5280;42.600;23.556;2023-02-28T15:19:13;5.17;;;4.33;;
10465;SDS011;5280;42.600;23.556;2023-02-28T15:21:47;5.00;;;4.50;;